sensor_id;sensor_type;location;lat;lon;timestamp;P1;durP1;ratioP1;P2;durP2;ratioP2
819;SDS011;392;48.838;2.322;2023-06-14T00:02:19;15.67;;;14.47;;
819;SDS011;392;48.838;2.322;2023-06-14T00:04:46;14.77;;;13.60;;
819;SDS011;392;48.838;2.322;2023-06-14T00:07:16;15.83;;;14.60;;
819;SDS011;392;48.838;2.322;2023-06-14T00:09:45;14.50;;;13.33;;
819;SDS011;392;48.838;2.322;2023-06-14T00:12:12;15.47;;;14.40;;
819;SDS011;392;48.838;2.322;2023-06-14T00:14:40;14.90;;;13.97;;
819;SDS011;392;48.838;2.322;2023-06-14T00:17:07;14.67;;;13.67;;
819;SDS011;392;48.838;2.322;2023-06-14T00:19:35;13.90;;;12.80;;
819;SDS011;392;48.838;2.322;2023-06-14T00:22:02;15.20;;;14.10;;
819;SDS011;392;48.838;2.322;2023-06-14T00:24:29;15.37;;;14.00;;
819;SDS011;392;48.838;2.322;2023-06-14T00:26:58;16.00;;;14.73;;
819;SDS011;392;48.838;2.322;2023-06-14T00:29:25;15.33;;;14.33;;
819;SDS011;392;48.838;2.322;2023-06-14T00:31:53;16.13;;;14.97;;
819;SDS011;392;48.838;2.322;2023-06-14T00:34:20;14.90;;;13.60;;
819;SDS011;392;48.838;2.322;2023-06-14T00:36:47;13.90;;;12.90;;
819;SDS011;392;48.838;2.322;2023-06-14T00:39:14;14.13;;;12.93;;
819;SDS011;392;48.838;2.322;2023-06-14T00:41:42;14.87;;;13.83;;
819;SDS011;392;48.838;2.322;2023-06-14T00:44:10;14.57;;;13.23;;
819;SDS011;392;48.838;2.322;2023-06-14T00:46:40;15.07;;;13.97;;
819;SDS011;392;48.838;2.322;2023-06-14T00:49:08;14.73;;;13.60;;
819;SDS011;392;48.838;2.322;2023-06-14T00:51:35;14.57;;;13.50;;
819;SDS011;392;48.838;2.322;2023-06-14T00:54:04;14.50;;;13.40;;
819;SDS011;392;48.838;2.322;2023-06-14T00:56:31;14.23;;;13.23;;
819;SDS011;392;48.838;2.322;2023-06-14T00:58:59;14.60;;;13.60;;
819;SDS011;392;48.838;2.322;2023-06-14T01:01:28;14.80;;;13.70;;
819;SDS011;392;48.838;2.322;2023-06-14T01:03:59;14.10;;;13.10;;
819;SDS011;392;48.838;2.322;2023-06-14T01:06:30;14.47;;;13.50;;
819;SDS011;392;48.838;2.322;2023-06-14T01:09:10;15.33;;;14.10;;
819;SDS011;392;48.838;2.322;2023-06-14T01:11:47;14.30;;;13.20;;
819;SDS011;392;48.838;2.322;2023-06-14T01:14:22;14.30;;;13.30;;
819;SDS011;392;48.838;2.322;2023-06-14T01:16:53;14.43;;;13.23;;
819;SDS011;392;48.838;2.322;2023-06-14T01:19:22;14.23;;;13.23;;
819;SDS011;392;48.838;2.322;2023-06-14T01:21:51;15.03;;;13.83;;
819;SDS011;392;48.838;2.322;2023-06-14T01:24:19;14.33;;;13.23;;
819;SDS011;392;48.838;2.322;2023-06-14T01:26:51;13.10;;;12.20;;
819;SDS011;392;48.838;2.322;2023-06-14T01:29:21;13.70;;;12.80;;
819;SDS011;392;48.838;2.322;2023-06-14T01:31:51;13.33;;;12.40;;
819;SDS011;392;48.838;2.322;2023-06-14T01:34:20;12.93;;;12.00;;
819;SDS011;392;48.838;2.322;2023-06-14T01:36:50;14.70;;;13.37;;
819;SDS011;392;48.838;2.322;2023-06-14T01:39:21;14.03;;;12.93;;
819;SDS011;392;48.838;2.322;2023-06-14T01:41:50;14.87;;;13.47;;
819;SDS011;392;48.838;2.322;2023-06-14T01:44:18;13.43;;;12.33;;
819;SDS011;392;48.838;2.322;2023-06-14T01:46:46;13.60;;;12.60;;
819;SDS011;392;48.838;2.322;2023-06-14T01:49:14;13.50;;;12.50;;
819;SDS011;392;48.838;2.322;2023-06-14T01:51:42;14.40;;;13.30;;
819;SDS011;392;48.838;2.322;2023-06-14T01:54:09;13.97;;;12.77;;
819;SDS011;392;48.838;2.322;2023-06-14T01:56:39;12.90;;;12.00;;
819;SDS011;392;48.838;2.322;2023-06-14T01:59:06;13.70;;;12.60;;
819;SDS011;392;48.838;2.322;2023-06-14T02:01:33;13.53;;;12.43;;
819;SDS011;392;48.838;2.322;2023-06-14T02:04:01;13.30;;;12.10;;
819;SDS011;392;48.838;2.322;2023-06-14T02:06:29;13.13;;;12.03;;
819;SDS011;392;48.838;2.322;2023-06-14T02:08:56;13.60;;;12.47;;
819;SDS011;392;48.838;2.322;2023-06-14T02:11:27;14.30;;;13.07;;
819;SDS011;392;48.838;2.322;2023-06-14T02:13:56;13.80;;;12.70;;
819;SDS011;392;48.838;2.322;2023-06-14T02:16:25;13.17;;;12.17;;
819;SDS011;392;48.838;2.322;2023-06-14T02:18:53;13.60;;;12.60;;
819;SDS011;392;48.838;2.322;2023-06-14T02:21:22;12.27;;;11.37;;
819;SDS011;392;48.838;2.322;2023-06-14T02:23:50;12.60;;;11.60;;
819;SDS011;392;48.838;2.322;2023-06-14T02:26:17;14.47;;;13.27;;
819;SDS011;392;48.838;2.322;2023-06-14T02:28:44;13.00;;;12.00;;
819;SDS011;392;48.838;2.322;2023-06-14T02:31:13;13.20;;;12.10;;
819;SDS011;392;48.838;2.322;2023-06-14T02:33:41;12.93;;;11.83;;
819;SDS011;392;48.838;2.322;2023-06-14T02:36:08;12.83;;;11.83;;
819;SDS011;392;48.838;2.322;2023-06-14T02:38:35;13.00;;;11.90;;
819;SDS011;392;48.838;2.322;2023-06-14T02:41:03;12.30;;;11.40;;
819;SDS011;392;48.838;2.322;2023-06-14T02:43:31;12.47;;;11.37;;
819;SDS011;392;48.838;2.322;2023-06-14T02:45:58;12.80;;;11.60;;
819;SDS011;392;48.838;2.322;2023-06-14T02:48:27;12.20;;;11.30;;
819;SDS011;392;48.838;2.322;2023-06-14T02:50:55;13.20;;;11.97;;
819;SDS011;392;48.838;2.322;2023-06-14T02:53:22;13.00;;;11.80;;
819;SDS011;392;48.838;2.322;2023-06-14T02:55:50;12.13;;;11.23;;
819;SDS011;392;48.838;2.322;2023-06-14T02:58:17;11.87;;;10.87;;
819;SDS011;392;48.838;2.322;2023-06-14T03:00:44;12.60;;;11.60;;
819;SDS011;392;48.838;2.322;2023-06-14T03:03:12;12.23;;;11.33;;
819;SDS011;392;48.838;2.322;2023-06-14T03:05:50;12.30;;;11.50;;
819;SDS011;392;48.838;2.322;2023-06-14T03:08:22;12.13;;;11.23;;
819;SDS011;392;48.838;2.322;2023-06-14T03:10:53;11.97;;;10.97;;
819;SDS011;392;48.838;2.322;2023-06-14T03:13:21;12.70;;;11.80;;
819;SDS011;392;48.838;2.322;2023-06-14T03:15:51;12.77;;;11.77;;
819;SDS011;392;48.838;2.322;2023-06-14T03:18:19;12.80;;;11.70;;
819;SDS011;392;48.838;2.322;2023-06-14T03:20:51;13.27;;;12.27;;
819;SDS011;392;48.838;2.322;2023-06-14T03:23:19;12.40;;;11.20;;
819;SDS011;392;48.838;2.322;2023-06-14T03:25:47;11.97;;;11.00;;
819;SDS011;392;48.838;2.322;2023-06-14T03:28:14;12.20;;;11.30;;
819;SDS011;392;48.838;2.322;2023-06-14T03:30:42;12.33;;;11.30;;
819;SDS011;392;48.838;2.322;2023-06-14T03:33:09;12.53;;;11.33;;
819;SDS011;392;48.838;2.322;2023-06-14T03:35:39;12.20;;;11.30;;
819;SDS011;392;48.838;2.322;2023-06-14T03:38:08;13.60;;;12.50;;
819;SDS011;392;48.838;2.322;2023-06-14T03:40:36;12.10;;;11.17;;
819;SDS011;392;48.838;2.322;2023-06-14T03:43:05;12.50;;;11.53;;
819;SDS011;392;48.838;2.322;2023-06-14T03:45:32;12.43;;;11.43;;
819;SDS011;392;48.838;2.322;2023-06-14T03:48:00;11.90;;;11.00;;
819;SDS011;392;48.838;2.322;2023-06-14T03:50:30;13.53;;;12.47;;
819;SDS011;392;48.838;2.322;2023-06-14T03:52:58;13.20;;;12.20;;
819;SDS011;392;48.838;2.322;2023-06-14T03:55:28;12.80;;;11.70;;
819;SDS011;392;48.838;2.322;2023-06-14T03:57:57;13.17;;;12.10;;
819;SDS011;392;48.838;2.322;2023-06-14T04:00:24;13.17;;;12.17;;
819;SDS011;392;48.838;2.322;2023-06-14T04:02:52;13.57;;;12.57;;
819;SDS011;392;48.838;2.322;2023-06-14T04:05:19;13.00;;;11.93;;
819;SDS011;392;48.838;2.322;2023-06-14T04:07:49;13.10;;;12.10;;
819;SDS011;392;48.838;2.322;2023-06-14T04:10:17;12.70;;;11.80;;
819;SDS011;392;48.838;2.322;2023-06-14T04:12:47;13.03;;;11.80;;
819;SDS011;392;48.838;2.322;2023-06-14T04:15:16;12.77;;;11.67;;
819;SDS011;392;48.838;2.322;2023-06-14T04:17:44;12.47;;;11.40;;
819;SDS011;392;48.838;2.322;2023-06-14T04:20:11;12.80;;;11.60;;
819;SDS011;392;48.838;2.322;2023-06-14T04:22:38;12.30;;;11.30;;
819;SDS011;392;48.838;2.322;2023-06-14T04:25:07;12.47;;;11.37;;
819;SDS011;392;48.838;2.322;2023-06-14T04:27:34;13.50;;;12.40;;
819;SDS011;392;48.838;2.322;2023-06-14T04:30:05;13.27;;;12.17;;
819;SDS011;392;48.838;2.322;2023-06-14T04:32:43;12.50;;;11.33;;
819;SDS011;392;48.838;2.322;2023-06-14T04:35:12;11.70;;;10.80;;
819;SDS011;392;48.838;2.322;2023-06-14T04:37:42;12.80;;;11.60;;
819;SDS011;392;48.838;2.322;2023-06-14T04:40:11;12.83;;;11.80;;
819;SDS011;392;48.838;2.322;2023-06-14T04:42:39;11.37;;;10.57;;
819;SDS011;392;48.838;2.322;2023-06-14T04:45:12;13.20;;;12.10;;
819;SDS011;392;48.838;2.322;2023-06-14T04:47:41;12.63;;;11.73;;
819;SDS011;392;48.838;2.322;2023-06-14T04:50:09;13.40;;;12.20;;
819;SDS011;392;48.838;2.322;2023-06-14T04:52:39;11.83;;;10.87;;
819;SDS011;392;48.838;2.322;2023-06-14T04:55:08;13.40;;;12.30;;
819;SDS011;392;48.838;2.322;2023-06-14T04:57:36;14.23;;;12.90;;
819;SDS011;392;48.838;2.322;2023-06-14T05:00:05;12.37;;;11.33;;
819;SDS011;392;48.838;2.322;2023-06-14T05:02:38;12.90;;;11.77;;
819;SDS011;392;48.838;2.322;2023-06-14T05:05:06;13.90;;;12.70;;
819;SDS011;392;48.838;2.322;2023-06-14T05:07:34;13.30;;;12.00;;
819;SDS011;392;48.838;2.322;2023-06-14T05:10:01;13.67;;;12.57;;
819;SDS011;392;48.838;2.322;2023-06-14T05:12:29;13.93;;;12.83;;
819;SDS011;392;48.838;2.322;2023-06-14T05:14:57;14.20;;;13.07;;
819;SDS011;392;48.838;2.322;2023-06-14T05:17:24;13.20;;;12.10;;
819;SDS011;392;48.838;2.322;2023-06-14T05:19:54;14.10;;;12.63;;
819;SDS011;392;48.838;2.322;2023-06-14T05:22:22;14.23;;;12.90;;
819;SDS011;392;48.838;2.322;2023-06-14T05:24:49;14.60;;;13.13;;
819;SDS011;392;48.838;2.322;2023-06-14T05:27:16;14.37;;;13.27;;
819;SDS011;392;48.838;2.322;2023-06-14T05:29:44;13.60;;;12.60;;
819;SDS011;392;48.838;2.322;2023-06-14T05:32:11;14.20;;;12.97;;
819;SDS011;392;48.838;2.322;2023-06-14T05:34:38;13.43;;;12.43;;
819;SDS011;392;48.838;2.322;2023-06-14T05:37:07;14.13;;;13.00;;
819;SDS011;392;48.838;2.322;2023-06-14T05:39:35;14.60;;;13.37;;
819;SDS011;392;48.838;2.322;2023-06-14T05:42:02;14.50;;;13.30;;
819;SDS011;392;48.838;2.322;2023-06-14T05:44:31;14.23;;;13.03;;
819;SDS011;392;48.838;2.322;2023-06-14T05:46:58;14.40;;;13.30;;
819;SDS011;392;48.838;2.322;2023-06-14T05:49:25;14.33;;;13.30;;
819;SDS011;392;48.838;2.322;2023-06-14T05:51:53;15.50;;;14.20;;
819;SDS011;392;48.838;2.322;2023-06-14T05:54:21;13.60;;;12.50;;
819;SDS011;392;48.838;2.322;2023-06-14T05:56:49;13.90;;;12.70;;
819;SDS011;392;48.838;2.322;2023-06-14T05:59:16;14.83;;;13.73;;
819;SDS011;392;48.838;2.322;2023-06-14T06:01:43;13.80;;;12.70;;
819;SDS011;392;48.838;2.322;2023-06-14T06:04:11;15.73;;;14.37;;
819;SDS011;392;48.838;2.322;2023-06-14T06:06:39;15.00;;;13.80;;
819;SDS011;392;48.838;2.322;2023-06-14T06:09:06;14.40;;;13.40;;
819;SDS011;392;48.838;2.322;2023-06-14T06:11:35;15.07;;;13.83;;
819;SDS011;392;48.838;2.322;2023-06-14T06:14:02;14.00;;;12.87;;
819;SDS011;392;48.838;2.322;2023-06-14T06:16:29;15.50;;;14.30;;
819;SDS011;392;48.838;2.322;2023-06-14T06:18:56;14.00;;;13.00;;
819;SDS011;392;48.838;2.322;2023-06-14T06:21:24;13.70;;;12.80;;
819;SDS011;392;48.838;2.322;2023-06-14T06:23:51;12.47;;;11.67;;
819;SDS011;392;48.838;2.322;2023-06-14T06:26:21;13.47;;;12.47;;
819;SDS011;392;48.838;2.322;2023-06-14T06:28:50;12.67;;;11.77;;
819;SDS011;392;48.838;2.322;2023-06-14T06:31:17;15.60;;;14.30;;
819;SDS011;392;48.838;2.322;2023-06-14T06:33:45;19.20;;;17.77;;
819;SDS011;392;48.838;2.322;2023-06-14T06:36:12;13.53;;;12.63;;
819;SDS011;392;48.838;2.322;2023-06-14T06:38:39;14.73;;;13.47;;
819;SDS011;392;48.838;2.322;2023-06-14T06:41:07;14.57;;;13.27;;
819;SDS011;392;48.838;2.322;2023-06-14T06:43:34;14.40;;;13.30;;
819;SDS011;392;48.838;2.322;2023-06-14T06:46:03;14.73;;;13.73;;
819;SDS011;392;48.838;2.322;2023-06-14T06:48:30;15.70;;;14.40;;
819;SDS011;392;48.838;2.322;2023-06-14T06:50:57;14.23;;;13.23;;
819;SDS011;392;48.838;2.322;2023-06-14T06:53:24;15.83;;;14.50;;
819;SDS011;392;48.838;2.322;2023-06-14T06:55:52;14.83;;;13.73;;
819;SDS011;392;48.838;2.322;2023-06-14T06:58:19;16.10;;;14.80;;
819;SDS011;392;48.838;2.322;2023-06-14T07:00:47;15.07;;;13.97;;
819;SDS011;392;48.838;2.322;2023-06-14T07:03:16;16.00;;;14.93;;
819;SDS011;392;48.838;2.322;2023-06-14T07:05:43;16.63;;;15.40;;
819;SDS011;392;48.838;2.322;2023-06-14T07:08:10;15.83;;;14.47;;
819;SDS011;392;48.838;2.322;2023-06-14T07:10:38;18.30;;;17.00;;
819;SDS011;392;48.838;2.322;2023-06-14T07:13:05;17.00;;;15.50;;
819;SDS011;392;48.838;2.322;2023-06-14T07:15:32;16.40;;;15.37;;
819;SDS011;392;48.838;2.322;2023-06-14T07:17:59;17.00;;;15.70;;
819;SDS011;392;48.838;2.322;2023-06-14T07:20:28;16.70;;;15.40;;
819;SDS011;392;48.838;2.322;2023-06-14T07:22:56;17.43;;;16.23;;
819;SDS011;392;48.838;2.322;2023-06-14T07:25:23;17.70;;;16.60;;
819;SDS011;392;48.838;2.322;2023-06-14T07:27:50;17.90;;;16.60;;
819;SDS011;392;48.838;2.322;2023-06-14T07:30:17;17.50;;;16.30;;
819;SDS011;392;48.838;2.322;2023-06-14T07:32:45;18.57;;;17.27;;
819;SDS011;392;48.838;2.322;2023-06-14T07:35:12;19.20;;;17.90;;
819;SDS011;392;48.838;2.322;2023-06-14T07:37:40;17.80;;;16.43;;
819;SDS011;392;48.838;2.322;2023-06-14T07:40:08;19.20;;;17.73;;
819;SDS011;392;48.838;2.322;2023-06-14T07:42:36;17.27;;;16.13;;
819;SDS011;392;48.838;2.322;2023-06-14T07:45:04;17.67;;;16.60;;
819;SDS011;392;48.838;2.322;2023-06-14T07:47:32;17.20;;;15.90;;
819;SDS011;392;48.838;2.322;2023-06-14T07:50:00;16.87;;;15.97;;
819;SDS011;392;48.838;2.322;2023-06-14T07:52:28;18.57;;;17.27;;
819;SDS011;392;48.838;2.322;2023-06-14T07:54:57;20.23;;;18.30;;
819;SDS011;392;48.838;2.322;2023-06-14T07:57:25;19.00;;;17.80;;
819;SDS011;392;48.838;2.322;2023-06-14T07:59:52;18.30;;;16.80;;
819;SDS011;392;48.838;2.322;2023-06-14T08:02:20;19.20;;;18.10;;
819;SDS011;392;48.838;2.322;2023-06-14T08:04:47;19.00;;;17.93;;
819;SDS011;392;48.838;2.322;2023-06-14T08:07:14;17.40;;;16.30;;
819;SDS011;392;48.838;2.322;2023-06-14T08:09:41;20.17;;;18.97;;
819;SDS011;392;48.838;2.322;2023-06-14T08:12:10;21.00;;;19.67;;
819;SDS011;392;48.838;2.322;2023-06-14T08:14:38;19.80;;;18.80;;
819;SDS011;392;48.838;2.322;2023-06-14T08:17:06;19.37;;;18.40;;
819;SDS011;392;48.838;2.322;2023-06-14T08:19:33;19.07;;;17.97;;
819;SDS011;392;48.838;2.322;2023-06-14T08:22:02;17.80;;;16.80;;
819;SDS011;392;48.838;2.322;2023-06-14T08:24:30;20.50;;;19.20;;
819;SDS011;392;48.838;2.322;2023-06-14T08:26:57;19.03;;;17.90;;
819;SDS011;392;48.838;2.322;2023-06-14T08:29:27;20.13;;;18.87;;
819;SDS011;392;48.838;2.322;2023-06-14T08:31:56;20.57;;;19.67;;
819;SDS011;392;48.838;2.322;2023-06-14T08:34:23;20.90;;;19.80;;
819;SDS011;392;48.838;2.322;2023-06-14T08:36:50;20.30;;;19.07;;
819;SDS011;392;48.838;2.322;2023-06-14T08:39:18;18.17;;;17.13;;
819;SDS011;392;48.838;2.322;2023-06-14T08:41:46;19.47;;;18.37;;
819;SDS011;392;48.838;2.322;2023-06-14T08:44:14;19.07;;;17.87;;
819;SDS011;392;48.838;2.322;2023-06-14T08:46:43;20.00;;;18.50;;
819;SDS011;392;48.838;2.322;2023-06-14T08:49:11;18.03;;;16.90;;
819;SDS011;392;48.838;2.322;2023-06-14T08:51:39;16.90;;;16.00;;
819;SDS011;392;48.838;2.322;2023-06-14T08:54:07;18.93;;;17.93;;
819;SDS011;392;48.838;2.322;2023-06-14T08:56:35;19.43;;;18.43;;
819;SDS011;392;48.838;2.322;2023-06-14T08:59:06;22.20;;;21.10;;
819;SDS011;392;48.838;2.322;2023-06-14T09:01:36;23.87;;;22.17;;
819;SDS011;392;48.838;2.322;2023-06-14T09:04:05;24.70;;;23.30;;
819;SDS011;392;48.838;2.322;2023-06-14T09:06:32;28.83;;;27.53;;
819;SDS011;392;48.838;2.322;2023-06-14T09:08:59;30.53;;;29.33;;
819;SDS011;392;48.838;2.322;2023-06-14T09:11:29;31.70;;;30.50;;
819;SDS011;392;48.838;2.322;2023-06-14T09:13:57;32.23;;;30.70;;
819;SDS011;392;48.838;2.322;2023-06-14T09:16:25;33.60;;;31.70;;
819;SDS011;392;48.838;2.322;2023-06-14T09:18:53;32.40;;;31.00;;
819;SDS011;392;48.838;2.322;2023-06-14T09:21:22;36.80;;;35.40;;
819;SDS011;392;48.838;2.322;2023-06-14T09:23:49;37.33;;;35.83;;
819;SDS011;392;48.838;2.322;2023-06-14T09:26:16;39.73;;;38.13;;
819;SDS011;392;48.838;2.322;2023-06-14T09:28:46;39.97;;;38.50;;
819;SDS011;392;48.838;2.322;2023-06-14T09:31:15;39.33;;;37.50;;
819;SDS011;392;48.838;2.322;2023-06-14T09:33:45;43.70;;;42.10;;
819;SDS011;392;48.838;2.322;2023-06-14T09:36:15;42.90;;;41.10;;
819;SDS011;392;48.838;2.322;2023-06-14T09:38:56;44.57;;;42.70;;
819;SDS011;392;48.838;2.322;2023-06-14T09:41:32;45.73;;;43.57;;
819;SDS011;392;48.838;2.322;2023-06-14T09:44:01;42.23;;;40.40;;
819;SDS011;392;48.838;2.322;2023-06-14T09:46:32;44.40;;;42.57;;
819;SDS011;392;48.838;2.322;2023-06-14T09:49:01;48.33;;;46.53;;
819;SDS011;392;48.838;2.322;2023-06-14T09:51:29;50.57;;;48.77;;
819;SDS011;392;48.838;2.322;2023-06-14T09:53:59;45.20;;;43.50;;
819;SDS011;392;48.838;2.322;2023-06-14T09:56:30;41.53;;;40.07;;
819;SDS011;392;48.838;2.322;2023-06-14T09:59:04;41.50;;;39.90;;
819;SDS011;392;48.838;2.322;2023-06-14T10:01:33;41.40;;;39.90;;
819;SDS011;392;48.838;2.322;2023-06-14T10:04:02;44.20;;;42.53;;
819;SDS011;392;48.838;2.322;2023-06-14T10:06:31;46.03;;;44.43;;
819;SDS011;392;48.838;2.322;2023-06-14T10:09:04;48.10;;;46.40;;
819;SDS011;392;48.838;2.322;2023-06-14T10:11:36;48.87;;;47.17;;
819;SDS011;392;48.838;2.322;2023-06-14T10:14:10;50.40;;;48.70;;
819;SDS011;392;48.838;2.322;2023-06-14T10:16:41;48.10;;;46.37;;
819;SDS011;392;48.838;2.322;2023-06-14T10:19:17;48.97;;;47.20;;
819;SDS011;392;48.838;2.322;2023-06-14T10:21:50;48.63;;;46.70;;
819;SDS011;392;48.838;2.322;2023-06-14T10:24:26;47.77;;;45.97;;
819;SDS011;392;48.838;2.322;2023-06-14T10:26:58;44.77;;;43.17;;
819;SDS011;392;48.838;2.322;2023-06-14T10:29:26;44.00;;;42.40;;
819;SDS011;392;48.838;2.322;2023-06-14T10:31:57;42.73;;;40.93;;
819;SDS011;392;48.838;2.322;2023-06-14T10:34:26;34.43;;;33.10;;
819;SDS011;392;48.838;2.322;2023-06-14T10:37:00;34.20;;;32.80;;
819;SDS011;392;48.838;2.322;2023-06-14T10:39:33;34.53;;;33.23;;
819;SDS011;392;48.838;2.322;2023-06-14T10:42:06;34.30;;;32.80;;
819;SDS011;392;48.838;2.322;2023-06-14T10:44:39;33.83;;;32.43;;
819;SDS011;392;48.838;2.322;2023-06-14T10:47:09;33.83;;;32.43;;
819;SDS011;392;48.838;2.322;2023-06-14T10:49:49;36.57;;;35.07;;
819;SDS011;392;48.838;2.322;2023-06-14T10:52:23;35.67;;;34.27;;
819;SDS011;392;48.838;2.322;2023-06-14T10:57:49;33.07;;;31.67;;
819;SDS011;392;48.838;2.322;2023-06-14T11:00:21;32.40;;;31.20;;
819;SDS011;392;48.838;2.322;2023-06-14T11:02:53;26.57;;;25.37;;
819;SDS011;392;48.838;2.322;2023-06-14T11:05:55;25.63;;;24.53;;
819;SDS011;392;48.838;2.322;2023-06-14T11:08:29;28.50;;;27.23;;
819;SDS011;392;48.838;2.322;2023-06-14T11:11:14;28.50;;;26.90;;
819;SDS011;392;48.838;2.322;2023-06-14T11:13:42;27.20;;;25.90;;
819;SDS011;392;48.838;2.322;2023-06-14T11:16:12;28.43;;;27.33;;
819;SDS011;392;48.838;2.322;2023-06-14T11:18:40;27.33;;;26.20;;
819;SDS011;392;48.838;2.322;2023-06-14T11:21:08;28.90;;;27.70;;
819;SDS011;392;48.838;2.322;2023-06-14T11:23:35;29.50;;;28.30;;
819;SDS011;392;48.838;2.322;2023-06-14T11:26:03;29.17;;;27.97;;
819;SDS011;392;48.838;2.322;2023-06-14T11:28:38;29.00;;;27.83;;
819;SDS011;392;48.838;2.322;2023-06-14T11:31:07;25.37;;;24.27;;
819;SDS011;392;48.838;2.322;2023-06-14T11:33:35;28.20;;;26.93;;
819;SDS011;392;48.838;2.322;2023-06-14T11:36:03;30.57;;;29.37;;
819;SDS011;392;48.838;2.322;2023-06-14T11:38:35;29.60;;;28.50;;
819;SDS011;392;48.838;2.322;2023-06-14T11:41:03;32.27;;;30.97;;
819;SDS011;392;48.838;2.322;2023-06-14T11:43:31;34.50;;;33.10;;
819;SDS011;392;48.838;2.322;2023-06-14T11:46:01;31.10;;;29.90;;
819;SDS011;392;48.838;2.322;2023-06-14T11:48:38;29.40;;;28.20;;
819;SDS011;392;48.838;2.322;2023-06-14T11:51:07;27.33;;;26.23;;
819;SDS011;392;48.838;2.322;2023-06-14T11:53:36;27.53;;;26.33;;
819;SDS011;392;48.838;2.322;2023-06-14T11:56:04;26.93;;;25.43;;
819;SDS011;392;48.838;2.322;2023-06-14T11:58:32;25.33;;;24.17;;
819;SDS011;392;48.838;2.322;2023-06-14T12:00:59;27.47;;;26.17;;
819;SDS011;392;48.838;2.322;2023-06-14T12:03:28;28.10;;;26.90;;
819;SDS011;392;48.838;2.322;2023-06-14T12:06:03;24.87;;;23.83;;
819;SDS011;392;48.838;2.322;2023-06-14T12:08:33;26.00;;;24.80;;
819;SDS011;392;48.838;2.322;2023-06-14T12:11:04;27.67;;;26.57;;
819;SDS011;392;48.838;2.322;2023-06-14T12:13:33;24.20;;;23.10;;
819;SDS011;392;48.838;2.322;2023-06-14T12:16:06;22.73;;;21.73;;
819;SDS011;392;48.838;2.322;2023-06-14T12:18:36;24.30;;;23.20;;
819;SDS011;392;48.838;2.322;2023-06-14T12:21:06;23.73;;;22.57;;
819;SDS011;392;48.838;2.322;2023-06-14T12:23:38;24.83;;;23.83;;
819;SDS011;392;48.838;2.322;2023-06-14T12:26:08;24.57;;;23.57;;
819;SDS011;392;48.838;2.322;2023-06-14T12:28:36;22.90;;;21.80;;
819;SDS011;392;48.838;2.322;2023-06-14T12:31:03;22.63;;;21.40;;
819;SDS011;392;48.838;2.322;2023-06-14T12:33:31;23.10;;;22.20;;
819;SDS011;392;48.838;2.322;2023-06-14T12:36:00;23.30;;;22.30;;
819;SDS011;392;48.838;2.322;2023-06-14T12:38:31;23.53;;;22.60;;
819;SDS011;392;48.838;2.322;2023-06-14T12:40:58;24.67;;;23.57;;
819;SDS011;392;48.838;2.322;2023-06-14T12:43:26;23.80;;;22.50;;
819;SDS011;392;48.838;2.322;2023-06-14T12:45:54;24.40;;;23.30;;
819;SDS011;392;48.838;2.322;2023-06-14T12:48:21;26.47;;;25.27;;
819;SDS011;392;48.838;2.322;2023-06-14T12:50:49;25.83;;;24.83;;
819;SDS011;392;48.838;2.322;2023-06-14T12:53:18;25.07;;;23.90;;
819;SDS011;392;48.838;2.322;2023-06-14T12:55:45;24.83;;;23.70;;
819;SDS011;392;48.838;2.322;2023-06-14T12:58:12;25.57;;;24.47;;
819;SDS011;392;48.838;2.322;2023-06-14T13:00:39;22.67;;;21.67;;
819;SDS011;392;48.838;2.322;2023-06-14T13:03:07;21.20;;;20.20;;
819;SDS011;392;48.838;2.322;2023-06-14T13:05:34;22.60;;;21.37;;
819;SDS011;392;48.838;2.322;2023-06-14T13:08:02;23.50;;;22.40;;
819;SDS011;392;48.838;2.322;2023-06-14T13:10:31;22.50;;;21.60;;
819;SDS011;392;48.838;2.322;2023-06-14T13:12:58;23.50;;;22.47;;
819;SDS011;392;48.838;2.322;2023-06-14T13:15:26;21.57;;;20.40;;
819;SDS011;392;48.838;2.322;2023-06-14T13:17:53;20.13;;;19.13;;
819;SDS011;392;48.838;2.322;2023-06-14T13:20:20;18.87;;;17.87;;
819;SDS011;392;48.838;2.322;2023-06-14T13:22:47;20.00;;;19.10;;
819;SDS011;392;48.838;2.322;2023-06-14T13:25:15;19.00;;;17.67;;
819;SDS011;392;48.838;2.322;2023-06-14T13:27:43;17.00;;;16.20;;
819;SDS011;392;48.838;2.322;2023-06-14T13:30:11;17.13;;;16.20;;
819;SDS011;392;48.838;2.322;2023-06-14T13:32:39;16.60;;;15.57;;
819;SDS011;392;48.838;2.322;2023-06-14T13:35:06;16.57;;;15.80;;
819;SDS011;392;48.838;2.322;2023-06-14T13:37:34;17.10;;;16.10;;
819;SDS011;392;48.838;2.322;2023-06-14T13:40:01;15.27;;;14.47;;
819;SDS011;392;48.838;2.322;2023-06-14T13:42:28;14.70;;;13.90;;
819;SDS011;392;48.838;2.322;2023-06-14T13:44:59;14.73;;;13.87;;
819;SDS011;392;48.838;2.322;2023-06-14T13:47:26;15.30;;;14.50;;
819;SDS011;392;48.838;2.322;2023-06-14T13:49:53;15.00;;;14.10;;
819;SDS011;392;48.838;2.322;2023-06-14T13:52:20;15.30;;;13.90;;
819;SDS011;392;48.838;2.322;2023-06-14T13:54:48;14.70;;;13.80;;
819;SDS011;392;48.838;2.322;2023-06-14T13:57:15;15.00;;;14.20;;
819;SDS011;392;48.838;2.322;2023-06-14T13:59:43;15.50;;;14.50;;
819;SDS011;392;48.838;2.322;2023-06-14T14:02:12;15.80;;;14.47;;
819;SDS011;392;48.838;2.322;2023-06-14T14:04:40;14.20;;;13.50;;
819;SDS011;392;48.838;2.322;2023-06-14T14:07:08;13.13;;;12.43;;
819;SDS011;392;48.838;2.322;2023-06-14T14:09:35;14.07;;;13.37;;
819;SDS011;392;48.838;2.322;2023-06-14T14:12:05;15.20;;;14.40;;
819;SDS011;392;48.838;2.322;2023-06-14T14:14:33;15.33;;;14.47;;
819;SDS011;392;48.838;2.322;2023-06-14T14:17:00;15.80;;;14.70;;
819;SDS011;392;48.838;2.322;2023-06-14T14:19:29;16.33;;;15.53;;
819;SDS011;392;48.838;2.322;2023-06-14T14:21:56;15.40;;;14.60;;
819;SDS011;392;48.838;2.322;2023-06-14T14:24:23;15.70;;;14.90;;
819;SDS011;392;48.838;2.322;2023-06-14T14:26:51;15.37;;;14.50;;
819;SDS011;392;48.838;2.322;2023-06-14T14:29:19;15.57;;;14.77;;
819;SDS011;392;48.838;2.322;2023-06-14T14:31:47;15.90;;;14.83;;
819;SDS011;392;48.838;2.322;2023-06-14T14:34:14;14.70;;;14.00;;
819;SDS011;392;48.838;2.322;2023-06-14T14:36:42;14.73;;;13.93;;
819;SDS011;392;48.838;2.322;2023-06-14T14:39:10;17.47;;;15.87;;
819;SDS011;392;48.838;2.322;2023-06-14T14:41:37;15.57;;;14.67;;
819;SDS011;392;48.838;2.322;2023-06-14T14:44:05;15.50;;;14.50;;
819;SDS011;392;48.838;2.322;2023-06-14T14:46:33;16.33;;;15.30;;
819;SDS011;392;48.838;2.322;2023-06-14T14:49:00;15.53;;;14.53;;
819;SDS011;392;48.838;2.322;2023-06-14T14:51:28;15.53;;;14.53;;
819;SDS011;392;48.838;2.322;2023-06-14T14:53:56;15.70;;;14.70;;
819;SDS011;392;48.838;2.322;2023-06-14T14:56:23;15.30;;;14.40;;
819;SDS011;392;48.838;2.322;2023-06-14T14:58:51;15.10;;;14.30;;
819;SDS011;392;48.838;2.322;2023-06-14T15:01:18;16.30;;;15.07;;
819;SDS011;392;48.838;2.322;2023-06-14T15:03:46;20.43;;;19.20;;
819;SDS011;392;48.838;2.322;2023-06-14T15:06:13;18.77;;;17.50;;
819;SDS011;392;48.838;2.322;2023-06-14T15:08:40;15.00;;;14.10;;
819;SDS011;392;48.838;2.322;2023-06-14T15:11:09;17.20;;;15.80;;
819;SDS011;392;48.838;2.322;2023-06-14T15:13:36;15.47;;;14.67;;
819;SDS011;392;48.838;2.322;2023-06-14T15:16:03;15.53;;;14.63;;
819;SDS011;392;48.838;2.322;2023-06-14T15:18:31;14.50;;;13.70;;
819;SDS011;392;48.838;2.322;2023-06-14T15:20:58;14.40;;;13.60;;
819;SDS011;392;48.838;2.322;2023-06-14T15:23:25;14.80;;;13.70;;
819;SDS011;392;48.838;2.322;2023-06-14T15:25:52;13.77;;;13.07;;
819;SDS011;392;48.838;2.322;2023-06-14T15:28:21;13.87;;;13.07;;